createdAt,value
2023-03-29T00:01:35.950Z,11.43
2023-03-29T00:06:38.092Z,10.73
2023-03-29T00:11:40.997Z,9.90
2023-03-29T00:16:45.114Z,9.57
2023-03-29T00:21:47.998Z,9.00
2023-03-29T00:26:50.592Z,9.05
2023-03-29T00:31:54.664Z,9.60
2023-03-29T00:42:01.421Z,9.00
2023-03-29T00:47:04.070Z,9.38
2023-03-29T00:52:07.633Z,10.80
2023-03-29T00:57:12.211Z,9.50
2023-03-29T01:02:16.467Z,10.57
2023-03-29T01:12:26.788Z,8.88
2023-03-29T01:17:31.942Z,11.15
2023-03-29T01:23:04.224Z,11.13
2023-03-29T01:28:10.948Z,9.63
2023-03-29T01:33:21.533Z,12.07
2023-03-29T01:38:43.592Z,12.23
2023-03-29T01:43:51.725Z,13.65
2023-03-29T01:49:18.981Z,10.75
2023-03-29T01:54:28.726Z,9.68
2023-03-29T01:59:34.960Z,10.65
2023-03-29T02:04:40.644Z,12.55
2023-03-29T02:09:43.864Z,10.40
2023-03-29T02:14:46.699Z,11.98
2023-03-29T02:19:53.711Z,9.18
2023-03-29T02:24:59.521Z,12.77
2023-03-29T02:30:02.532Z,9.18
2023-03-29T02:35:08.742Z,10.65
2023-03-29T02:40:13.335Z,12.32
2023-03-29T02:45:17.656Z,13.27
2023-03-29T02:50:20.845Z,10.63
2023-03-29T02:55:25.431Z,8.93
2023-03-29T03:00:28.973Z,11.63
2023-03-29T03:05:31.934Z,9.20
2023-03-29T03:10:35.787Z,8.95
2023-03-29T03:15:43.114Z,8.25
2023-03-29T03:20:55.008Z,12.18
2023-03-29T03:46:56.478Z,7.03
2023-03-29T03:51:59.304Z,9.55
2023-03-29T03:57:02.643Z,7.28
2023-03-29T04:02:20.586Z,7.30
2023-03-29T04:07:25.684Z,9.63
2023-03-29T04:12:48.616Z,6.93
2023-03-29T04:17:51.668Z,5.80
2023-03-29T04:22:54.532Z,5.53
2023-03-29T04:27:57.565Z,8.20
2023-03-29T04:33:12.811Z,6.05
2023-03-29T04:38:23.616Z,7.13
2023-03-29T04:43:31.482Z,13.77
2023-03-29T04:48:46.275Z,8.52
2023-03-29T04:53:50.631Z,6.35
2023-03-29T04:58:53.990Z,9.05
2023-03-29T05:03:57.982Z,6.60
2023-03-29T05:09:09.086Z,7.88
2023-03-29T05:14:25.880Z,9.48
2023-03-29T05:19:28.631Z,10.60
2023-03-29T05:24:32.050Z,7.13
2023-03-29T05:29:39.392Z,7.43
2023-03-29T05:35:00.183Z,6.13
2023-03-29T05:40:10.477Z,10.70
2023-03-29T05:45:34.289Z,6.65
2023-03-29T05:50:42.378Z,12.13
2023-03-29T05:55:48.330Z,5.68
2023-03-29T06:00:53.829Z,5.90
2023-03-29T06:06:23.420Z,9.15
2023-03-29T06:11:26.706Z,5.82
2023-03-29T06:16:47.870Z,11.65
2023-03-29T06:21:54.012Z,6.20
2023-03-29T06:27:01.457Z,9.15
2023-03-29T06:32:06.507Z,8.20
2023-03-29T06:37:49.830Z,6.00
2023-03-29T06:43:15.700Z,6.88
2023-03-29T06:48:41.811Z,5.80
2023-03-29T06:53:44.705Z,7.32
2023-03-29T06:58:47.648Z,6.22
2023-03-29T07:04:08.274Z,6.05
2023-03-29T07:09:30.725Z,5.43
2023-03-29T07:14:51.930Z,8.10
2023-03-29T07:19:55.554Z,6.82
2023-03-29T07:25:20.640Z,11.05
2023-03-29T07:35:27.037Z,6.40
2023-03-29T07:40:36.346Z,7.13
2023-03-29T07:46:05.920Z,8.75
2023-03-29T07:51:11.173Z,10.50
2023-03-29T07:56:25.262Z,8.23
2023-03-29T08:01:46.381Z,6.80
2023-03-29T08:07:01.150Z,8.85
2023-03-29T08:12:25.089Z,7.72
2023-03-29T08:17:31.059Z,9.00
2023-03-29T08:22:34.704Z,7.72
2023-03-29T08:27:56.109Z,9.15
2023-03-29T08:33:25.068Z,11.10
2023-03-29T08:38:38.761Z,7.63
2023-03-29T08:49:02.336Z,11.45
2023-03-29T08:59:30.186Z,13.30
2023-03-29T09:04:36.888Z,8.27
2023-03-29T09:09:49.436Z,10.05
2023-03-29T09:15:16.723Z,8.00
2023-03-29T09:20:28.297Z,8.80
2023-03-29T09:25:50.754Z,9.60
2023-03-29T09:31:06.597Z,9.55
2023-03-29T09:36:18.168Z,9.27
2023-03-29T09:41:24.199Z,8.63
2023-03-29T09:46:30.683Z,6.88
2023-03-29T09:51:34.614Z,7.32
2023-03-29T09:56:38.259Z,6.63
2023-03-29T10:01:48.685Z,7.43
2023-03-29T10:06:53.352Z,7.80
2023-03-29T10:12:00.590Z,7.63
2023-03-29T10:17:05.278Z,6.65
2023-03-29T10:22:18.476Z,7.10
2023-03-29T10:27:23.822Z,7.95
2023-03-29T10:32:34.748Z,8.00
2023-03-29T10:37:40.635Z,7.38
2023-03-29T10:42:52.279Z,9.20
2023-03-29T10:47:58.225Z,9.38
2023-03-29T10:53:01.531Z,11.27
2023-03-29T10:58:21.979Z,10.30
2023-03-29T11:03:57.295Z,12.60
2023-03-29T11:09:02.341Z,17.67
2023-03-29T11:14:14.305Z,11.32
2023-03-29T11:19:35.666Z,11.30
2023-03-29T11:25:04.580Z,14.18
2023-03-29T11:30:09.420Z,10.80
2023-03-29T11:35:22.416Z,9.90
2023-03-29T11:40:43.467Z,14.00
2023-03-29T11:45:52.726Z,8.18
2023-03-29T11:50:59.149Z,7.82
2023-03-29T11:56:07.688Z,9.48
2023-03-29T12:01:16.451Z,9.27
2023-03-29T12:06:22.711Z,11.00
2023-03-29T12:11:37.946Z,7.10
2023-03-29T12:16:40.711Z,8.52
2023-03-29T12:21:45.364Z,8.75
2023-03-29T12:26:58.130Z,10.25
2023-03-29T12:32:10.075Z,9.27
2023-03-29T12:37:41.107Z,7.78
2023-03-29T12:43:07.347Z,8.25
2023-03-29T12:48:35.318Z,6.95
2023-03-29T12:58:43.390Z,8.52
2023-03-29T13:03:46.848Z,9.35
2023-03-29T13:08:57.858Z,10.15
2023-03-29T13:14:01.998Z,11.38
2023-03-29T13:19:06.943Z,13.13
2023-03-29T13:24:16.290Z,11.68
2023-03-29T13:29:24.319Z,6.35
2023-03-29T13:34:39.739Z,11.15
2023-03-29T13:39:51.494Z,14.07
2023-03-29T13:45:07.264Z,9.30
2023-03-29T13:50:16.971Z,12.60
2023-03-29T13:55:26.412Z,9.15
2023-03-29T14:00:33.003Z,9.52
2023-03-29T14:05:40.602Z,11.98
2023-03-29T14:10:45.295Z,15.93
2023-03-29T14:15:52.039Z,8.60
2023-03-29T14:20:55.705Z,14.10
2023-03-29T14:31:01.415Z,11.68
2023-03-29T14:36:05.465Z,13.05
2023-03-29T14:41:10.110Z,10.48
2023-03-29T14:46:14.495Z,22.10
2023-03-29T14:51:17.549Z,26.55
2023-03-29T14:56:24.805Z,21.45
2023-03-29T15:01:28.024Z,26.40
2023-03-29T15:06:31.177Z,28.40
2023-03-29T15:11:34.498Z,21.77
2023-03-29T15:16:39.215Z,23.52
2023-03-29T15:21:43.494Z,21.33
2023-03-29T15:26:46.645Z,20.42
2023-03-29T15:32:01.337Z,16.08
2023-03-29T15:37:04.674Z,8.90
2023-03-29T15:42:07.705Z,10.60
2023-03-29T15:47:11.041Z,11.05
2023-03-29T15:52:13.845Z,9.50
2023-03-29T15:57:17.996Z,4.95
2023-03-29T16:02:23.612Z,8.02
2023-03-29T16:07:26.383Z,8.10
2023-03-29T16:12:29.105Z,4.72
2023-03-29T16:17:33.533Z,4.93
2023-03-29T16:22:37.072Z,6.28
2023-03-29T16:27:39.861Z,5.82
2023-03-29T16:32:43.514Z,7.65
2023-03-29T16:37:46.262Z,12.15
2023-03-29T16:42:48.864Z,11.93
2023-03-29T16:47:51.794Z,10.32
2023-03-29T16:52:56.990Z,11.35
2023-03-29T16:57:59.652Z,12.60
2023-03-29T17:03:02.583Z,10.90
2023-03-29T17:08:05.310Z,13.27
2023-03-29T17:13:08.447Z,7.53
2023-03-29T17:18:11.533Z,9.68
2023-03-29T17:23:14.183Z,6.88
2023-03-29T17:28:17.127Z,7.47
2023-03-29T17:33:26.377Z,6.15
2023-03-29T17:38:30.960Z,7.43
2023-03-29T17:43:33.649Z,8.35
2023-03-29T17:48:36.380Z,11.60
2023-03-29T17:53:39.115Z,9.25
2023-03-29T17:58:41.900Z,9.32
2023-03-29T18:03:45.431Z,8.20
2023-03-29T18:08:48.374Z,9.88
2023-03-29T18:13:51.673Z,9.98
2023-03-29T18:18:54.320Z,9.65
2023-03-29T18:23:57.203Z,7.15
2023-03-29T18:29:00.008Z,7.47
2023-03-29T18:34:02.942Z,13.70
2023-03-29T18:39:08.433Z,11.52
2023-03-29T18:44:14.338Z,15.93
2023-03-29T18:49:17.125Z,8.38
2023-03-29T18:54:19.832Z,6.72
2023-03-29T18:59:22.552Z,5.22
2023-03-29T19:04:26.925Z,6.25
2023-03-29T19:09:29.988Z,5.55
2023-03-29T19:14:33.075Z,13.35
2023-03-29T19:19:36.204Z,9.20
2023-03-29T19:24:38.936Z,12.05
2023-03-29T19:29:42.017Z,7.20
2023-03-29T19:34:44.884Z,4.25
2023-03-29T19:39:47.717Z,4.95
2023-03-29T19:44:50.720Z,7.18
2023-03-29T19:49:53.507Z,9.15
2023-03-29T19:54:56.925Z,7.78
2023-03-29T19:59:59.621Z,5.60
2023-03-29T20:05:02.821Z,5.93
2023-03-29T20:10:06.220Z,8.75
2023-03-29T20:15:09.584Z,12.52
2023-03-29T20:20:14.200Z,15.55
2023-03-29T20:25:16.947Z,13.40
2023-03-29T20:30:19.833Z,15.18
2023-03-29T20:35:22.482Z,13.20
2023-03-29T20:40:25.389Z,11.85
2023-03-29T20:45:29.622Z,14.27
2023-03-29T20:50:34.424Z,15.60
2023-03-29T20:55:40.155Z,9.60
2023-03-29T21:00:42.973Z,6.93
2023-03-29T21:05:46.285Z,5.72
2023-03-29T21:10:49.082Z,6.68
2023-03-29T21:15:52.287Z,6.68
2023-03-29T21:20:55.046Z,5.75
2023-03-29T21:25:57.823Z,8.50
2023-03-29T21:31:05.079Z,7.20
2023-03-29T21:36:08.873Z,7.38
2023-03-29T21:41:12.513Z,8.35
2023-03-29T21:46:15.872Z,10.73
2023-03-29T21:51:18.652Z,6.75
2023-03-29T21:56:22.714Z,9.38
2023-03-29T22:06:27.932Z,8.80
2023-03-29T22:11:31.374Z,8.30
2023-03-29T22:16:37.431Z,14.90
2023-03-29T22:21:41.091Z,19.58
2023-03-29T22:26:48.326Z,14.38
2023-03-29T22:31:51.225Z,17.40
2023-03-29T22:36:53.951Z,12.38
2023-03-29T22:41:56.542Z,15.35
2023-03-29T22:46:59.176Z,19.23
2023-03-29T22:52:01.723Z,19.48
2023-03-29T22:57:04.449Z,18.15
2023-03-29T23:02:07.999Z,10.40
2023-03-29T23:07:10.606Z,8.18
2023-03-29T23:12:13.178Z,9.63
2023-03-29T23:17:19.420Z,6.30
2023-03-29T23:22:23.014Z,10.60
2023-03-29T23:27:26.450Z,8.23
2023-03-29T23:32:29.324Z,9.02
2023-03-29T23:37:32.408Z,9.18
2023-03-29T23:42:35.007Z,12.25
2023-03-29T23:47:37.567Z,12.30
2023-03-29T23:52:41.082Z,8.35
2023-03-29T23:57:43.789Z,11.57
